Time;durP1;ratioP1;P1;durP2;ratioP2;P2;SDS_P1;SDS_P2;PMS_P1;PMS_P2;Temp;Humidity;BMP_temperature;BMP_pressure;BME280_temperature;BME280_humidity;BME280_pressure;Samples;Min_cycle;Max_cycle;Signal;HPM_P1;HPM_P2
2024/04/19 00:00:25;;;;;;;2.80;2.40;;;;;;;;;;5421428;26;20000;-80
2024/04/19 00:02:51;;;;;;;3.22;2.60;;;;;;;;;;5397094;26;19996;-81
2024/04/19 00:05:17;;;;;;;2.45;2.25;;;;;;;;;;5415671;26;20015;-82
2024/04/19 00:07:43;;;;;;;3.17;2.58;;;;;;;;;;5424459;26;19999;-81
2024/04/19 00:10:09;;;;;;;2.55;1.95;;;;;;;;;;5410129;26;20046;-81
2024/04/19 00:12:35;;;;;;;2.38;1.83;;;;;;;;;;5420682;26;19996;-81
2024/04/19 00:15:02;;;;;;;2.78;2.20;;;;;;;;;;5425131;26;19999;-80
2024/04/19 00:17:29;;;;;;;2.53;2.10;;;;;;;;;;5421708;26;20000;-81
2024/04/19 00:19:55;;;;;;;2.72;2.05;;;;;;;;;;5431269;26;20006;-81
2024/04/19 00:22:21;;;;;;;3.15;2.10;;;;;;;;;;5413080;26;19992;-80
2024/04/19 00:24:47;;;;;;;1.98;1.83;;;;;;;;;;5407975;26;19999;-79
2024/04/19 00:27:13;;;;;;;2.22;1.60;;;;;;;;;;5412241;26;20027;-80
2024/04/19 00:29:39;;;;;;;2.08;1.88;;;;;;;;;;5436891;26;19999;-81
2024/04/19 00:32:06;;;;;;;1.63;1.50;;;;;;;;;;5439547;26;19984;-79
2024/04/19 00:34:32;;;;;;;2.25;2.03;;;;;;;;;;5433160;26;19996;-80
2024/04/19 00:36:58;;;;;;;1.88;1.70;;;;;;;;;;5436152;26;19987;-80
2024/04/19 00:39:24;;;;;;;2.40;2.10;;;;;;;;;;5439174;26;20161;-80
2024/04/19 00:41:51;;;;;;;3.13;1.70;;;;;;;;;;5436134;26;19993;-80
2024/04/19 00:44:17;;;;;;;1.67;1.50;;;;;;;;;;5437666;26;20046;-81
2024/04/19 00:46:45;;;;;;;1.80;1.70;;;;;;;;;;5431297;26;20015;-80
2024/04/19 00:49:11;;;;;;;1.92;1.70;;;;;;;;;;5431177;26;19992;-80
2024/04/19 00:51:38;;;;;;;1.95;1.85;;;;;;;;;;5433591;26;20011;-81
2024/04/19 00:54:04;;;;;;;1.55;1.45;;;;;;;;;;5432392;26;20012;-81
2024/04/19 00:56:31;;;;;;;1.52;1.42;;;;;;;;;;5412448;26;20011;-80
2024/04/19 00:58:57;;;;;;;1.50;1.40;;;;;;;;;;5439716;26;20004;-80
2024/04/19 01:01:26;;;;;;;1.50;1.27;;;;;;;;;;5437681;26;20007;-80
2024/04/19 01:03:52;;;;;;;1.65;1.52;;;;;;;;;;5439685;26;20026;-80
2024/04/19 01:06:19;;;;;;;1.48;1.38;;;;;;;;;;5439751;26;19984;-79
2024/04/19 01:08:45;;;;;;;1.60;1.50;;;;;;;;;;5439858;26;20000;-80
2024/04/19 01:11:12;;;;;;;2.65;1.60;;;;;;;;;;5434393;26;19995;-81
2024/04/19 01:13:38;;;;;;;1.98;1.73;;;;;;;;;;5424264;26;20019;-81
2024/04/19 01:16:04;;;;;;;1.38;1.25;;;;;;;;;;5401244;26;20000;-81
2024/04/19 01:18:31;;;;;;;1.40;1.30;;;;;;;;;;5410086;26;20004;-81
2024/04/19 01:20:57;;;;;;;1.80;1.60;;;;;;;;;;5419046;26;20029;-81
2024/04/19 01:23:23;;;;;;;1.65;1.50;;;;;;;;;;5424133;26;20442;-81
2024/04/19 01:25:49;;;;;;;3.03;2.10;;;;;;;;;;5427401;26;19999;-81
2024/04/19 01:28:17;;;;;;;2.20;1.63;;;;;;;;;;5406742;26;20082;-82
2024/04/19 01:30:44;;;;;;;1.98;1.75;;;;;;;;;;5426863;26;20010;-81
2024/04/19 01:33:10;;;;;;;1.95;1.85;;;;;;;;;;5403701;26;20327;-81
2024/04/19 01:35:36;;;;;;;2.00;1.80;;;;;;;;;;5424205;26;20046;-81
2024/04/19 01:38:03;;;;;;;1.63;1.52;;;;;;;;;;5422505;26;20003;-80
2024/04/19 01:40:29;;;;;;;2.33;2.10;;;;;;;;;;5412825;26;20319;-80
2024/04/19 01:42:55;;;;;;;2.20;2.00;;;;;;;;;;5424646;26;20003;-80
2024/04/19 01:45:21;;;;;;;2.35;2.15;;;;;;;;;;5427455;26;19995;-79
2024/04/19 01:47:48;;;;;;;2.72;2.25;;;;;;;;;;5428488;26;20047;-80
2024/04/19 01:50:14;;;;;;;2.05;1.85;;;;;;;;;;5423864;26;19992;-81
2024/04/19 01:52:40;;;;;;;1.92;1.52;;;;;;;;;;5424268;26;20003;-81
2024/04/19 01:55:07;;;;;;;2.45;2.25;;;;;;;;;;5416826;26;20567;-79
2024/04/19 01:57:33;;;;;;;2.55;2.22;;;;;;;;;;5426776;26;20000;-81
2024/04/19 02:00:00;;;;;;;2.60;2.13;;;;;;;;;;5426286;26;20049;-81
2024/04/19 02:02:28;;;;;;;2.92;2.58;;;;;;;;;;5419529;26;19996;-81
2024/04/19 02:04:56;;;;;;;2.60;2.40;;;;;;;;;;5409673;26;19996;-81
2024/04/19 02:07:22;;;;;;;2.60;2.33;;;;;;;;;;5423410;26;19991;-80
2024/04/19 02:09:48;;;;;;;2.38;2.17;;;;;;;;;;5411242;26;19996;-81
2024/04/19 02:12:14;;;;;;;2.55;2.30;;;;;;;;;;5420232;26;19996;-81
2024/04/19 02:14:40;;;;;;;2.67;2.47;;;;;;;;;;5417953;26;20015;-80
2024/04/19 02:17:06;;;;;;;4.03;3.13;;;;;;;;;;5408860;26;20004;-80
2024/04/19 02:19:43;;;;;;;4.05;3.10;;;;;;;;;;5424048;26;20008;-80
2024/04/19 02:22:09;;;;;;;3.03;2.40;;;;;;;;;;5408989;26;19996;-80
2024/04/19 02:24:36;;;;;;;2.83;2.38;;;;;;;;;;5415985;26;19999;-80
2024/04/19 02:27:05;;;;;;;3.92;2.67;;;;;;;;;;5426150;26;19992;-80
2024/04/19 02:32:16;;;;;;;3.15;2.63;;;;;;;;;;5423393;26;20047;-80
2024/04/19 02:34:43;;;;;;;2.88;2.50;;;;;;;;;;5434710;26;20041;-80
2024/04/19 02:37:09;;;;;;;2.92;2.63;;;;;;;;;;5440718;26;19984;-80
2024/04/19 02:39:35;;;;;;;3.20;2.90;;;;;;;;;;5417807;26;20042;-81
2024/04/19 02:42:01;;;;;;;2.95;2.45;;;;;;;;;;5410076;26;20004;-79
2024/04/19 02:44:27;;;;;;;3.13;2.65;;;;;;;;;;5422067;26;20007;-80
2024/04/19 02:46:53;;;;;;;3.58;3.10;;;;;;;;;;5430301;26;20021;-80
2024/04/19 02:49:20;;;;;;;4.22;3.40;;;;;;;;;;5430344;26;20003;-80
2024/04/19 02:51:46;;;;;;;3.53;2.97;;;;;;;;;;5429266;26;20007;-81
2024/04/19 02:54:12;;;;;;;4.05;2.72;;;;;;;;;;5428407;26;20127;-80
2024/04/19 02:56:38;;;;;;;2.97;2.40;;;;;;;;;;5431904;26;20002;-80
2024/04/19 02:59:04;;;;;;;2.67;2.47;;;;;;;;;;5425930;26;20000;-81
2024/04/19 03:01:31;;;;;;;3.35;2.80;;;;;;;;;;5408023;26;20427;-81
2024/04/19 03:03:57;;;;;;;3.78;2.90;;;;;;;;;;5415236;26;19999;-81
2024/04/19 03:06:23;;;;;;;3.15;2.55;;;;;;;;;;5414126;26;20023;-81
2024/04/19 03:08:49;;;;;;;2.88;2.58;;;;;;;;;;5417102;26;20007;-82
2024/04/19 03:11:16;;;;;;;2.13;1.92;;;;;;;;;;5423702;26;20010;-81
2024/04/19 03:13:42;;;;;;;3.25;2.70;;;;;;;;;;5420532;26;20000;-81
2024/04/19 03:16:09;;;;;;;2.90;2.63;;;;;;;;;;5420185;26;20046;-80
2024/04/19 03:18:35;;;;;;;2.90;2.50;;;;;;;;;;5419532;26;20003;-82
2024/04/19 03:21:02;;;;;;;2.55;2.35;;;;;;;;;;5414757;26;19996;-81
2024/04/19 03:23:29;;;;;;;2.83;2.50;;;;;;;;;;5424773;26;19996;-81
2024/04/19 03:26:01;;;;;;;2.40;2.20;;;;;;;;;;5424385;26;20010;-80
2024/04/19 03:28:28;;;;;;;2.50;2.30;;;;;;;;;;5422961;26;19996;-80
2024/04/19 03:30:54;;;;;;;3.05;2.50;;;;;;;;;;5417912;26;20000;-80
2024/04/19 03:33:20;;;;;;;3.10;2.80;;;;;;;;;;5424943;26;19996;-80
2024/04/19 03:35:46;;;;;;;3.58;3.17;;;;;;;;;;5423991;26;19996;-79
2024/04/19 03:38:14;;;;;;;3.70;3.20;;;;;;;;;;5417519;26;20010;-78
2024/04/19 03:40:41;;;;;;;3.33;2.80;;;;;;;;;;5424814;26;19992;-78
2024/04/19 03:43:10;;;;;;;2.97;2.75;;;;;;;;;;5419155;26;20011;-78
2024/04/19 03:45:46;;;;;;;4.72;4.00;;;;;;;;;;5415938;26;20035;-78
2024/04/19 03:48:12;;;;;;;4.82;3.72;;;;;;;;;;5408756;26;20008;-79
2024/04/19 03:50:39;;;;;;;6.53;3.42;;;;;;;;;;5415179;26;20039;-78
2024/04/19 03:53:05;;;;;;;3.20;2.60;;;;;;;;;;5424846;26;19996;-79
2024/04/19 03:55:31;;;;;;;3.78;3.35;;;;;;;;;;5423914;26;19996;-78
2024/04/19 03:57:58;;;;;;;2.70;2.47;;;;;;;;;;5433213;26;20007;-77
2024/04/19 04:00:25;;;;;;;6.75;4.90;;;;;;;;;;5440846;26;19990;-77
2024/04/19 04:02:52;;;;;;;5.20;4.10;;;;;;;;;;5440406;26;19987;-76
2024/04/19 04:05:18;;;;;;;5.15;4.30;;;;;;;;;;5441196;26;20007;-79
2024/04/19 04:07:44;;;;;;;4.65;3.65;;;;;;;;;;5439953;26;19984;-78
2024/04/19 04:10:10;;;;;;;3.60;3.28;;;;;;;;;;5434937;26;19987;-79
2024/04/19 04:12:37;;;;;;;4.75;3.55;;;;;;;;;;5408311;26;20047;-81
2024/04/19 04:15:04;;;;;;;5.90;3.85;;;;;;;;;;5425034;26;20003;-80
2024/04/19 04:17:30;;;;;;;5.78;4.15;;;;;;;;;;5430144;26;20009;-81
2024/04/19 04:19:56;;;;;;;4.07;3.65;;;;;;;;;;5415621;26;19996;-80
2024/04/19 04:22:22;;;;;;;3.97;3.58;;;;;;;;;;5430233;26;20438;-80
2024/04/19 04:24:48;;;;;;;3.97;3.50;;;;;;;;;;5423945;26;20011;-80
2024/04/19 04:27:15;;;;;;;4.03;3.42;;;;;;;;;;5430004;26;19999;-80
2024/04/19 04:29:41;;;;;;;4.90;4.30;;;;;;;;;;5429972;26;19995;-80
2024/04/19 04:32:07;;;;;;;6.00;5.00;;;;;;;;;;5430101;26;20003;-81
2024/04/19 04:34:33;;;;;;;7.00;5.32;;;;;;;;;;5430369;26;20006;-80
2024/04/19 04:37:00;;;;;;;7.10;5.65;;;;;;;;;;5429462;26;20003;-79
2024/04/19 04:39:26;;;;;;;7.47;6.38;;;;;;;;;;5428589;26;20010;-79
2024/04/19 04:41:52;;;;;;;6.60;5.05;;;;;;;;;;5414172;26;20469;-80
2024/04/19 04:44:18;;;;;;;7.65;6.35;;;;;;;;;;5406663;26;19995;-80
2024/04/19 04:46:44;;;;;;;7.63;5.85;;;;;;;;;;5418721;26;20438;-79
2024/04/19 04:49:10;;;;;;;7.57;6.07;;;;;;;;;;5423239;26;20334;-85
2024/04/19 04:51:37;;;;;;;7.13;5.82;;;;;;;;;;5423965;26;20054;-84
2024/04/19 04:54:03;;;;;;;9.43;6.50;;;;;;;;;;5424030;26;19999;-83
2024/04/19 04:56:29;;;;;;;8.27;5.45;;;;;;;;;;5407108;26;20000;-85
2024/04/19 04:58:56;;;;;;;6.72;5.50;;;;;;;;;;5422026;26;20000;-83
2024/04/19 05:01:22;;;;;;;9.52;6.97;;;;;;;;;;5425998;26;19999;-79
2024/04/19 05:03:48;;;;;;;7.75;6.13;;;;;;;;;;5427382;26;20015;-77
2024/04/19 05:06:18;;;;;;;9.40;6.45;;;;;;;;;;5428298;26;20000;-78
2024/04/19 05:08:44;;;;;;;8.77;6.35;;;;;;;;;;5427387;26;19996;-78
2024/04/19 05:11:10;;;;;;;7.32;5.70;;;;;;;;;;5428375;26;20011;-78
2024/04/19 05:13:36;;;;;;;7.07;6.07;;;;;;;;;;5427939;26;19999;-77
2024/04/19 05:16:03;;;;;;;7.80;6.15;;;;;;;;;;5428691;26;20016;-77
2024/04/19 05:18:29;;;;;;;6.82;5.53;;;;;;;;;;5403878;26;20016;-79
2024/04/19 05:20:55;;;;;;;9.77;6.75;;;;;;;;;;5424365;26;20006;-78
2024/04/19 05:23:21;;;;;;;8.60;6.38;;;;;;;;;;5429583;26;19996;-78
2024/04/19 05:25:50;;;;;;;6.90;5.88;;;;;;;;;;5429529;26;20346;-78
2024/04/19 05:28:16;;;;;;;7.30;5.72;;;;;;;;;;5429983;26;20006;-78
2024/04/19 05:30:43;;;;;;;6.25;4.65;;;;;;;;;;5434817;26;20003;-79
2024/04/19 05:33:09;;;;;;;4.82;4.28;;;;;;;;;;5428519;26;20039;-78
2024/04/19 05:35:35;;;;;;;5.60;4.85;;;;;;;;;;5423558;26;20011;-78
2024/04/19 05:38:01;;;;;;;5.80;4.78;;;;;;;;;;5426458;26;19999;-78
2024/04/19 05:40:28;;;;;;;6.88;5.68;;;;;;;;;;5423192;26;19996;-76
2024/04/19 05:42:54;;;;;;;6.50;4.93;;;;;;;;;;5438425;26;19999;-76
2024/04/19 05:45:20;;;;;;;5.93;4.65;;;;;;;;;;5418234;26;19992;-78
2024/04/19 05:47:47;;;;;;;5.20;4.55;;;;;;;;;;5418998;26;21002;-77
2024/04/19 05:50:13;;;;;;;6.65;5.40;;;;;;;;;;5423665;26;20000;-77
2024/04/19 05:52:39;;;;;;;5.57;4.82;;;;;;;;;;5427695;26;20071;-78
2024/04/19 05:55:06;;;;;;;5.35;4.50;;;;;;;;;;5420216;26;19993;-78
2024/04/19 05:57:32;;;;;;;5.28;4.15;;;;;;;;;;5438911;26;20007;-76
2024/04/19 05:59:58;;;;;;;5.38;4.40;;;;;;;;;;5436586;26;20003;-77
2024/04/19 06:02:25;;;;;;;4.93;3.70;;;;;;;;;;5432588;26;20006;-77
2024/04/19 06:04:51;;;;;;;4.45;3.90;;;;;;;;;;5433750;26;19996;-77
2024/04/19 06:07:21;;;;;;;4.93;4.43;;;;;;;;;;5435628;26;20003;-78
2024/04/19 06:09:47;;;;;;;6.05;3.78;;;;;;;;;;5432077;26;20022;-78
2024/04/19 06:12:13;;;;;;;6.05;4.72;;;;;;;;;;5417594;26;20003;-77
2024/04/19 06:14:39;;;;;;;4.80;4.07;;;;;;;;;;5434798;26;20097;-78
2024/04/19 06:17:05;;;;;;;4.50;3.70;;;;;;;;;;5418043;26;20000;-77
2024/04/19 06:19:32;;;;;;;7.40;4.47;;;;;;;;;;5435255;26;20004;-78
2024/04/19 06:21:58;;;;;;;6.15;5.22;;;;;;;;;;5432367;26;20062;-76
2024/04/19 06:24:24;;;;;;;6.35;4.95;;;;;;;;;;5426667;26;20067;-77
2024/04/19 06:26:50;;;;;;;5.20;4.60;;;;;;;;;;5410440;26;20007;-79
2024/04/19 06:29:16;;;;;;;5.80;4.95;;;;;;;;;;5414638;26;20078;-77
2024/04/19 06:31:44;;;;;;;4.72;3.60;;;;;;;;;;5430736;26;20446;-77
2024/04/19 06:34:10;;;;;;;6.25;4.15;;;;;;;;;;5431710;26;20091;-78
2024/04/19 06:36:36;;;;;;;5.65;4.18;;;;;;;;;;5433336;26;20007;-77
2024/04/19 06:39:02;;;;;;;5.45;4.57;;;;;;;;;;5433434;26;19995;-78
2024/04/19 06:41:31;;;;;;;6.70;4.97;;;;;;;;;;5416500;26;20008;-78
2024/04/19 06:43:57;;;;;;;5.65;4.50;;;;;;;;;;5432270;26;20024;-78
2024/04/19 06:46:24;;;;;;;5.75;4.60;;;;;;;;;;5421897;26;20011;-77
2024/04/19 06:48:50;;;;;;;6.28;4.40;;;;;;;;;;5432332;26;19999;-77
2024/04/19 06:51:16;;;;;;;4.00;3.58;;;;;;;;;;5438711;26;20002;-77
2024/04/19 06:53:42;;;;;;;7.20;4.70;;;;;;;;;;5423009;26;20010;-77
2024/04/19 06:56:08;;;;;;;5.82;4.30;;;;;;;;;;5430138;26;20049;-78
2024/04/19 06:58:34;;;;;;;6.20;3.90;;;;;;;;;;5420615;26;19999;-77
2024/04/19 07:01:05;;;;;;;5.43;4.72;;;;;;;;;;5437874;26;19992;-76
2024/04/19 07:03:34;;;;;;;4.20;3.80;;;;;;;;;;5405311;26;20001;-76
2024/04/19 07:06:07;;;;;;;6.25;4.90;;;;;;;;;;5434101;26;20008;-76
2024/04/19 07:08:33;;;;;;;4.97;4.25;;;;;;;;;;5404220;26;20011;-76
2024/04/19 07:11:01;;;;;;;5.45;4.68;;;;;;;;;;5420738;26;20012;-76
2024/04/19 07:13:27;;;;;;;5.88;4.00;;;;;;;;;;5413652;26;20011;-78
2024/04/19 07:15:54;;;;;;;5.15;4.38;;;;;;;;;;5413310;26;19997;-78
2024/04/19 07:18:23;;;;;;;5.22;4.63;;;;;;;;;;5413555;26;20010;-78
2024/04/19 07:20:49;;;;;;;6.68;4.90;;;;;;;;;;5429691;26;20053;-78
2024/04/19 07:23:16;;;;;;;5.43;4.22;;;;;;;;;;5432289;26;20056;-77
2024/04/19 07:25:42;;;;;;;4.78;4.25;;;;;;;;;;5430896;26;19996;-78
2024/04/19 07:28:08;;;;;;;5.50;3.75;;;;;;;;;;5430040;26;20053;-79
2024/04/19 07:30:37;;;;;;;5.43;4.18;;;;;;;;;;5422154;26;20021;-77
2024/04/19 07:33:04;;;;;;;4.28;3.88;;;;;;;;;;5423668;26;20011;-78
2024/04/19 07:35:31;;;;;;;5.40;4.50;;;;;;;;;;5430283;26;20010;-77
2024/04/19 07:37:57;;;;;;;5.07;4.05;;;;;;;;;;5416049;26;19996;-77
2024/04/19 07:40:25;;;;;;;6.45;4.75;;;;;;;;;;5409304;26;20011;-78
2024/04/19 07:42:51;;;;;;;5.97;5.25;;;;;;;;;;5409403;26;20035;-79
2024/04/19 07:45:22;;;;;;;6.10;4.88;;;;;;;;;;5427125;26;20014;-78
2024/04/19 07:47:52;;;;;;;5.22;4.65;;;;;;;;;;5426582;26;20000;-79
2024/04/19 07:50:18;;;;;;;6.13;4.25;;;;;;;;;;5428334;26;20011;-79
2024/04/19 07:52:45;;;;;;;6.93;4.50;;;;;;;;;;5418345;26;20015;-80
2024/04/19 07:55:11;;;;;;;5.43;4.40;;;;;;;;;;5410172;26;20402;-79
2024/04/19 07:57:37;;;;;;;5.53;4.60;;;;;;;;;;5432686;26;20471;-78
2024/04/19 08:00:06;;;;;;;5.05;4.35;;;;;;;;;;5435107;26;20041;-77
2024/04/19 08:02:32;;;;;;;7.38;5.30;;;;;;;;;;5416968;26;19996;-79
2024/04/19 08:04:58;;;;;;;9.15;5.88;;;;;;;;;;5426047;26;19999;-79
2024/04/19 08:07:26;;;;;;;5.22;4.68;;;;;;;;;;5426481;26;19999;-79
2024/04/19 08:09:56;;;;;;;6.47;5.35;;;;;;;;;;5428378;26;20103;-79
2024/04/19 08:12:22;;;;;;;6.00;4.75;;;;;;;;;;5421039;26;20000;-79
2024/04/19 08:14:48;;;;;;;5.68;4.57;;;;;;;;;;5404337;26;20004;-78
2024/04/19 08:17:15;;;;;;;8.60;5.00;;;;;;;;;;5426550;26;20009;-78
2024/04/19 08:19:41;;;;;;;6.82;4.40;;;;;;;;;;5425937;26;19991;-78
2024/04/19 08:22:07;;;;;;;6.20;4.40;;;;;;;;;;5423993;26;20094;-79
2024/04/19 08:24:33;;;;;;;7.55;4.68;;;;;;;;;;5401119;26;19995;-79
2024/04/19 08:27:00;;;;;;;5.40;4.22;;;;;;;;;;5428311;26;20010;-78
2024/04/19 08:29:26;;;;;;;6.75;4.00;;;;;;;;;;5427639;26;20007;-78
2024/04/19 08:31:52;;;;;;;5.32;4.30;;;;;;;;;;5428838;26;20007;-77
2024/04/19 08:34:18;;;;;;;4.00;3.60;;;;;;;;;;5427139;26;19995;-78
2024/04/19 08:36:44;;;;;;;6.57;5.43;;;;;;;;;;5424886;26;19999;-78
2024/04/19 08:39:10;;;;;;;6.07;4.10;;;;;;;;;;5424560;26;20000;-78
2024/04/19 08:41:36;;;;;;;4.70;3.80;;;;;;;;;;5427206;26;20039;-79
2024/04/19 08:44:04;;;;;;;5.32;4.22;;;;;;;;;;5426308;26;20011;-80
2024/04/19 08:46:33;;;;;;;4.82;3.85;;;;;;;;;;5426967;26;20050;-77
2024/04/19 08:49:03;;;;;;;6.97;4.03;;;;;;;;;;5424341;26;20057;-78
2024/04/19 08:51:30;;;;;;;5.80;3.72;;;;;;;;;;5410884;26;20311;-78
2024/04/19 08:53:56;;;;;;;4.78;3.97;;;;;;;;;;5429453;26;19999;-78
2024/04/19 08:56:24;;;;;;;5.22;3.63;;;;;;;;;;5433794;26;19988;-77
2024/04/19 08:58:56;;;;;;;4.65;3.67;;;;;;;;;;5430648;26;20499;-77
2024/04/19 09:01:23;;;;;;;4.85;4.03;;;;;;;;;;5425730;26;20042;-75
2024/04/19 09:03:49;;;;;;;4.75;3.90;;;;;;;;;;5437868;26;20031;-76
2024/04/19 09:06:16;;;;;;;4.65;3.90;;;;;;;;;;5425652;26;20072;-78
2024/04/19 09:08:42;;;;;;;3.78;3.15;;;;;;;;;;5414812;26;20011;-78
2024/04/19 09:11:09;;;;;;;3.42;3.13;;;;;;;;;;5428338;26;20454;-78
2024/04/19 09:13:36;;;;;;;3.88;3.42;;;;;;;;;;5426532;26;19995;-79
2024/04/19 09:16:02;;;;;;;5.90;3.00;;;;;;;;;;5426898;26;20020;-76
2024/04/19 09:18:29;;;;;;;3.75;3.17;;;;;;;;;;5424882;26;20010;-79
2024/04/19 09:20:55;;;;;;;4.97;3.70;;;;;;;;;;5409601;26;20011;-77
2024/04/19 09:23:21;;;;;;;4.20;3.30;;;;;;;;;;5415080;26;20004;-79
2024/04/19 09:25:54;;;;;;;3.30;2.78;;;;;;;;;;5401872;26;20006;-79
2024/04/19 09:28:21;;;;;;;3.65;2.90;;;;;;;;;;5427583;26;20601;-77
2024/04/19 09:30:49;;;;;;;4.05;3.35;;;;;;;;;;5424240;26;20003;-78
2024/04/19 09:33:17;;;;;;;4.78;3.58;;;;;;;;;;5407051;26;20075;-78
2024/04/19 09:35:43;;;;;;;4.53;3.75;;;;;;;;;;5414495;26;20000;-79
2024/04/19 09:38:09;;;;;;;5.13;3.83;;;;;;;;;;5424658;26;20027;-79
2024/04/19 09:40:36;;;;;;;6.47;4.00;;;;;;;;;;5412454;26;19999;-79
2024/04/19 09:43:09;;;;;;;3.55;3.03;;;;;;;;;;5425265;26;20027;-78
2024/04/19 09:45:43;;;;;;;4.03;2.80;;;;;;;;;;5416183;26;20005;-77
2024/04/19 09:48:15;;;;;;;3.58;2.95;;;;;;;;;;5413017;26;19992;-77
2024/04/19 09:50:43;;;;;;;3.97;3.17;;;;;;;;;;5401535;26;20000;-79
2024/04/19 09:53:14;;;;;;;4.57;3.40;;;;;;;;;;5423256;26;20002;-77
2024/04/19 09:55:44;;;;;;;5.43;3.65;;;;;;;;;;5436194;26;19992;-77
2024/04/19 09:58:11;;;;;;;3.92;3.15;;;;;;;;;;5439359;26;20000;-76
2024/04/19 10:00:37;;;;;;;4.45;3.40;;;;;;;;;;5439811;26;20250;-76
2024/04/19 10:03:08;;;;;;;6.13;3.53;;;;;;;;;;5439418;26;20125;-76
2024/04/19 10:05:34;;;;;;;3.30;3.00;;;;;;;;;;5439056;26;20010;-77
2024/04/19 10:08:02;;;;;;;4.18;3.13;;;;;;;;;;5438107;26;20006;-78
2024/04/19 10:10:28;;;;;;;5.43;3.22;;;;;;;;;;5425447;26;20003;-76
2024/04/19 10:12:54;;;;;;;5.25;3.53;;;;;;;;;;5439458;26;19987;-77
2024/04/19 10:15:21;;;;;;;3.47;2.92;;;;;;;;;;5439721;26;19988;-78
2024/04/19 10:17:47;;;;;;;4.70;3.40;;;;;;;;;;5421829;26;20006;-78
2024/04/19 10:20:14;;;;;;;3.55;2.90;;;;;;;;;;5424885;26;20007;-78
2024/04/19 10:22:44;;;;;;;3.45;2.78;;;;;;;;;;5413424;26;20019;-77
2024/04/19 10:25:10;;;;;;;4.47;2.47;;;;;;;;;;5424046;26;19999;-77
2024/04/19 10:27:38;;;;;;;2.58;2.35;;;;;;;;;;5424981;26;20038;-77
2024/04/19 10:30:04;;;;;;;3.90;2.80;;;;;;;;;;5426366;26;20010;-78
2024/04/19 10:32:31;;;;;;;4.18;2.92;;;;;;;;;;5429528;26;20014;-78
2024/04/19 10:34:58;;;;;;;2.38;2.17;;;;;;;;;;5413313;26;20037;-77
2024/04/19 10:37:25;;;;;;;3.33;2.67;;;;;;;;;;5426670;26;20461;-77
2024/04/19 10:39:51;;;;;;;2.95;2.65;;;;;;;;;;5426354;26;20007;-78
2024/04/19 10:42:21;;;;;;;4.15;2.80;;;;;;;;;;5425475;26;20058;-78
2024/04/19 10:44:48;;;;;;;3.38;2.45;;;;;;;;;;5421918;26;20006;-77
2024/04/19 10:47:14;;;;;;;2.88;2.30;;;;;;;;;;5416700;26;20003;-77
2024/04/19 10:49:40;;;;;;;2.15;1.95;;;;;;;;;;5409963;26;19999;-78
2024/04/19 10:52:06;;;;;;;4.55;2.03;;;;;;;;;;5418799;26;19991;-78
2024/04/19 10:54:32;;;;;;;2.30;2.10;;;;;;;;;;5419033;26;19995;-77
2024/04/19 10:57:00;;;;;;;2.65;2.45;;;;;;;;;;5418531;26;19992;-77
2024/04/19 10:59:26;;;;;;;2.17;1.98;;;;;;;;;;5400685;26;19999;-77
2024/04/19 11:01:57;;;;;;;2.45;1.85;;;;;;;;;;5418350;26;20068;-78
2024/04/19 11:04:24;;;;;;;3.53;2.13;;;;;;;;;;5405850;26;20014;-78
2024/04/19 11:06:50;;;;;;;2.20;2.00;;;;;;;;;;5418839;26;20810;-77
2024/04/19 11:09:18;;;;;;;2.25;2.05;;;;;;;;;;5400603;26;20244;-78
2024/04/19 11:11:44;;;;;;;5.63;2.47;;;;;;;;;;5418849;26;19995;-77
2024/04/19 11:14:10;;;;;;;1.70;1.50;;;;;;;;;;5416630;26;20061;-79
2024/04/19 11:16:36;;;;;;;5.15;2.80;;;;;;;;;;5418704;26;20012;-77
2024/04/19 11:19:04;;;;;;;1.67;1.40;;;;;;;;;;5425470;26;20027;-78
2024/04/19 11:21:30;;;;;;;2.22;1.77;;;;;;;;;;5426073;26;20004;-79
2024/04/19 11:23:57;;;;;;;2.10;1.90;;;;;;;;;;5411548;26;20011;-77
2024/04/19 11:26:23;;;;;;;2.83;2.28;;;;;;;;;;5422173;26;20016;-77
2024/04/19 11:28:50;;;;;;;2.08;1.77;;;;;;;;;;5425092;26;20010;-77
2024/04/19 11:31:16;;;;;;;2.80;2.08;;;;;;;;;;5425826;26;20417;-78
2024/04/19 11:33:43;;;;;;;2.30;2.10;;;;;;;;;;5425624;26;20050;-76
2024/04/19 11:36:09;;;;;;;2.97;1.77;;;;;;;;;;5423977;26;20002;-77
2024/04/19 11:38:36;;;;;;;2.97;1.65;;;;;;;;;;5425726;26;19992;-77
2024/04/19 11:41:02;;;;;;;1.95;1.60;;;;;;;;;;5410773;26;19997;-77
2024/04/19 11:43:29;;;;;;;2.58;1.90;;;;;;;;;;5419166;26;20064;-77
2024/04/19 11:45:56;;;;;;;5.43;2.00;;;;;;;;;;5384072;26;20010;-77
2024/04/19 11:48:23;;;;;;;3.10;1.67;;;;;;;;;;5403203;26;20006;-77
2024/04/19 11:50:49;;;;;;;2.30;1.70;;;;;;;;;;5432947;26;19995;-77
2024/04/19 11:53:15;;;;;;;2.17;1.67;;;;;;;;;;5435474;26;20402;-78
2024/04/19 11:55:42;;;;;;;1.33;1.23;;;;;;;;;;5438287;26;19991;-78
2024/04/19 11:58:09;;;;;;;1.35;1.25;;;;;;;;;;5413674;26;20012;-77
2024/04/19 12:00:36;;;;;;;2.25;1.40;;;;;;;;;;5434595;26;19992;-77
2024/04/19 12:03:02;;;;;;;2.38;1.90;;;;;;;;;;5424700;26;20003;-77
2024/04/19 12:05:28;;;;;;;2.40;1.55;;;;;;;;;;5423466;26;20418;-78
2024/04/19 12:07:54;;;;;;;2.67;1.75;;;;;;;;;;5420156;26;20076;-77
2024/04/19 12:10:22;;;;;;;2.17;1.50;;;;;;;;;;5415562;26;20324;-78
2024/04/19 12:12:48;;;;;;;2.72;1.55;;;;;;;;;;5423643;26;19995;-77
2024/04/19 12:15:14;;;;;;;2.22;1.63;;;;;;;;;;5424363;26;20003;-78
2024/04/19 12:17:40;;;;;;;1.55;1.17;;;;;;;;;;5397630;26;19999;-78
2024/04/19 12:20:09;;;;;;;2.45;1.60;;;;;;;;;;5420793;26;20007;-76
2024/04/19 12:22:35;;;;;;;4.57;1.52;;;;;;;;;;5417964;26;20034;-78
2024/04/19 12:25:01;;;;;;;2.63;1.38;;;;;;;;;;5417062;26;19996;-78
2024/04/19 12:27:28;;;;;;;2.53;1.65;;;;;;;;;;5417283;26;20003;-77
2024/04/19 12:29:55;;;;;;;2.00;1.38;;;;;;;;;;5418130;26;19991;-77
2024/04/19 12:32:21;;;;;;;1.92;1.50;;;;;;;;;;5417672;26;19995;-77
2024/04/19 12:34:48;;;;;;;4.72;1.48;;;;;;;;;;5417659;26;20004;-77
2024/04/19 12:37:15;;;;;;;1.30;1.08;;;;;;;;;;5416614;26;20416;-76
2024/04/19 12:39:42;;;;;;;2.50;1.50;;;;;;;;;;5416886;26;20003;-76
2024/04/19 12:42:08;;;;;;;1.63;1.15;;;;;;;;;;5402054;26;20015;-77
2024/04/19 12:44:34;;;;;;;1.38;1.13;;;;;;;;;;5417705;26;20469;-79
2024/04/19 12:47:00;;;;;;;2.95;0.90;;;;;;;;;;5416739;26;20014;-77
2024/04/19 12:49:26;;;;;;;1.27;1.00;;;;;;;;;;5417212;26;20000;-76
2024/04/19 12:51:54;;;;;;;1.15;1.00;;;;;;;;;;5413675;26;20012;-78
2024/04/19 12:54:21;;;;;;;1.33;1.08;;;;;;;;;;5413573;26;20106;-76
2024/04/19 12:56:48;;;;;;;1.77;1.00;;;;;;;;;;5407165;26;20001;-78
2024/04/19 12:59:14;;;;;;;1.70;1.08;;;;;;;;;;5397043;26;20064;-77
2024/04/19 13:01:40;;;;;;;1.83;1.00;;;;;;;;;;5416516;26;20035;-78
2024/04/19 13:04:07;;;;;;;1.20;0.90;;;;;;;;;;5416018;26;20032;-78
2024/04/19 13:06:33;;;;;;;1.30;1.20;;;;;;;;;;5403598;26;20031;-78
2024/04/19 13:09:02;;;;;;;1.42;1.02;;;;;;;;;;5415652;26;19995;-77
2024/04/19 13:11:28;;;;;;;1.60;1.13;;;;;;;;;;5402551;26;20363;-76
2024/04/19 13:13:56;;;;;;;2.40;0.90;;;;;;;;;;5417301;26;20434;-77
2024/04/19 13:16:23;;;;;;;1.77;1.45;;;;;;;;;;5417274;26;20132;-77
2024/04/19 13:18:49;;;;;;;2.15;1.00;;;;;;;;;;5415969;26;20000;-77
2024/04/19 13:21:16;;;;;;;2.97;1.10;;;;;;;;;;5400803;26;20000;-78
2024/04/19 13:23:42;;;;;;;2.15;1.45;;;;;;;;;;5403488;26;20408;-78
2024/04/19 13:26:09;;;;;;;1.38;1.02;;;;;;;;;;5418463;26;20319;-78
2024/04/19 13:28:38;;;;;;;1.73;1.08;;;;;;;;;;5411285;26;20004;-78
2024/04/19 13:31:05;;;;;;;1.30;0.95;;;;;;;;;;5410306;26;20035;-77
2024/04/19 13:33:31;;;;;;;2.20;0.93;;;;;;;;;;5420643;26;20051;-77
2024/04/19 13:35:57;;;;;;;2.63;0.80;;;;;;;;;;5420049;26;20081;-78
2024/04/19 13:38:23;;;;;;;0.80;0.80;;;;;;;;;;5419069;26;20076;-78
2024/04/19 13:40:49;;;;;;;1.65;0.93;;;;;;;;;;5418529;26;19999;-77
2024/04/19 13:43:15;;;;;;;0.80;0.80;;;;;;;;;;5419432;26;20546;-79
2024/04/19 13:45:42;;;;;;;0.80;0.60;;;;;;;;;;5419449;26;20000;-78
2024/04/19 13:48:08;;;;;;;6.18;1.27;;;;;;;;;;5404383;26;20008;-77
2024/04/19 13:50:34;;;;;;;1.27;0.73;;;;;;;;;;5420143;26;20008;-77
2024/04/19 13:53:04;;;;;;;1.05;1.05;;;;;;;;;;5406641;26;20019;-77
2024/04/19 13:55:30;;;;;;;1.25;1.10;;;;;;;;;;5420484;26;19999;-77
2024/04/19 13:57:56;;;;;;;0.85;0.85;;;;;;;;;;5420694;26;20010;-78
2024/04/19 14:00:23;;;;;;;0.80;0.80;;;;;;;;;;5422577;26;20003;-76
2024/04/19 14:02:49;;;;;;;1.27;1.05;;;;;;;;;;5393890;26;20014;-76
2024/04/19 14:05:15;;;;;;;0.93;0.93;;;;;;;;;;5415371;26;20000;-78
2024/04/19 14:07:41;;;;;;;1.13;0.90;;;;;;;;;;5406358;26;20115;-78
2024/04/19 14:10:07;;;;;;;1.35;1.20;;;;;;;;;;5417882;26;19995;-79
2024/04/19 14:12:34;;;;;;;1.80;1.00;;;;;;;;;;5422532;26;20064;-77
2024/04/19 14:15:00;;;;;;;1.00;0.90;;;;;;;;;;5421600;26;20016;-78
2024/04/19 14:17:26;;;;;;;1.58;0.70;;;;;;;;;;5425526;26;20003;-77
2024/04/19 14:19:54;;;;;;;1.65;0.93;;;;;;;;;;5420895;26;20010;-77
2024/04/19 14:22:20;;;;;;;0.65;0.65;;;;;;;;;;5421185;26;20000;-77
2024/04/19 14:24:46;;;;;;;3.65;0.90;;;;;;;;;;5418987;26;20073;-77
2024/04/19 14:27:13;;;;;;;0.68;0.68;;;;;;;;;;5420550;26;20366;-78
2024/04/19 14:29:39;;;;;;;0.80;0.80;;;;;;;;;;5421518;26;20458;-78
2024/04/19 14:32:05;;;;;;;0.82;0.60;;;;;;;;;;5422358;26;20056;-77
2024/04/19 14:34:31;;;;;;;1.88;0.80;;;;;;;;;;5422854;26;20011;-78
2024/04/19 14:36:58;;;;;;;0.75;0.75;;;;;;;;;;5421428;26;19999;-77
2024/04/19 14:39:24;;;;;;;1.10;1.00;;;;;;;;;;5418757;26;20032;-77
2024/04/19 14:41:51;;;;;;;3.50;1.00;;;;;;;;;;5419741;26;20043;-78